Time;durP1;ratioP1;P1;durP2;ratioP2;P2;SDS_P1;SDS_P2;PMS_P1;PMS_P2;Temp;Humidity;BMP_temperature;BMP_pressure;BME280_temperature;BME280_humidity;BME280_pressure;Samples;Min_cycle;Max_cycle;Signal;HPM_P1;HPM_P2
2022/07/02 00:02:12;;;;;;;;;10.00;10.00;;;;;18.04;45.02;101264.00;5056793;28;45630;-68
2022/07/02 00:04:43;;;;;;;;;6.00;6.00;;;;;17.98;44.94;101263.47;5056059;28;46183;-68
2022/07/02 00:07:09;;;;;;;;;5.75;5.75;;;;;18.01;45.09;101272.19;5056397;28;45467;-67
2022/07/02 00:09:36;;;;;;;;;7.25;6.50;;;;;18.01;45.67;101277.50;5056392;28;45338;-68
2022/07/02 00:12:02;;;;;;;;;11.25;10.00;;;;;17.99;45.60;101275.84;5056078;28;46084;-67
2022/07/02 00:14:28;;;;;;;;;9.50;9.50;;;;;17.91;46.21;101271.00;5055683;28;47519;-67
2022/07/02 00:16:56;;;;;;;;;9.00;9.00;;;;;17.87;46.29;101277.44;5055477;28;45286;-67
2022/07/02 00:19:22;;;;;;;;;8.25;7.75;;;;;17.83;46.68;101271.44;5056095;28;45374;-68
2022/07/02 00:21:48;;;;;;;;;8.50;6.75;;;;;17.76;46.91;101270.97;5056415;28;45383;-67
2022/07/02 00:24:13;;;;;;;;;8.75;8.50;;;;;17.67;46.98;101268.84;5055780;28;45457;-67
2022/07/02 00:26:40;;;;;;;;;8.00;8.00;;;;;17.66;47.15;101273.31;5055025;28;45269;-68
2022/07/02 00:29:21;;;;;;;;;10.00;9.00;;;;;17.61;47.45;101270.06;5056284;28;45268;-67
2022/07/02 00:31:48;;;;;;;;;12.00;10.50;;;;;17.59;47.46;101271.97;5056062;28;45352;-67
2022/07/02 00:34:16;;;;;;;;;12.75;9.75;;;;;17.56;47.75;101276.63;5055678;28;45354;-66
2022/07/02 00:36:43;;;;;;;;;12.00;12.00;;;;;17.51;47.65;101274.22;5055792;28;45365;-66
2022/07/02 00:39:08;;;;;;;;;11.75;11.00;;;;;17.37;48.43;101254.59;5071475;28;45318;-66
2022/07/02 00:41:34;;;;;;;;;12.25;9.00;;;;;17.43;48.36;101273.81;5056056;28;45330;-66
2022/07/02 00:44:00;;;;;;;;;10.50;9.00;;;;;17.40;48.70;101263.34;5056591;28;46381;-67
2022/07/02 00:46:28;;;;;;;;;8.50;8.50;;;;;17.34;49.30;101272.53;5056813;28;45234;-67
2022/07/02 00:48:54;;;;;;;;;9.00;9.00;;;;;17.34;49.35;101264.53;5056588;28;45414;-68
2022/07/02 00:51:19;;;;;;;;;9.25;8.25;;;;;17.27;49.89;101260.53;5056845;28;45683;-67
2022/07/02 00:53:44;;;;;;;;;7.00;6.50;;;;;17.23;50.73;101258.03;5055272;28;46165;-66
2022/07/02 00:56:10;;;;;;;;;9.00;8.00;;;;;17.20;50.81;101262.69;5053769;28;45349;-67
2022/07/02 00:58:36;;;;;;;;;9.25;9.25;;;;;17.14;51.65;101260.41;5055331;28;45346;-67
2022/07/02 01:01:01;;;;;;;;;9.00;8.00;;;;;17.08;52.14;101259.81;5055259;28;45417;-67
2022/07/02 01:03:29;;;;;;;;;9.50;9.00;;;;;16.94;53.13;101247.25;5055014;28;45642;-68
2022/07/02 01:05:56;;;;;;;;;4.75;4.75;;;;;16.88;53.58;101252.03;5055251;28;45341;-67
2022/07/02 01:11:08;;;;;;;;;9.75;9.00;;;;;16.70;54.60;101260.09;5054830;28;45325;-67
2022/07/02 01:13:34;;;;;;;;;14.00;12.50;;;;;16.63;54.71;101256.06;5054626;28;45483;-70
2022/07/02 01:16:00;;;;;;;;;14.00;12.50;;;;;16.57;54.99;101254.63;5054818;28;45395;-67
2022/07/02 01:18:26;;;;;;;;;13.75;12.25;;;;;16.53;54.85;101255.72;5055202;28;45366;-67
2022/07/02 01:20:51;;;;;;;;;29.00;21.50;;;;;16.46;55.82;101249.03;5055317;28;45326;-67
2022/07/02 01:23:16;;;;;;;;;15.75;13.00;;;;;16.45;55.63;101257.94;5055074;28;46342;-68
2022/07/02 01:25:49;;;;;;;;;11.50;8.00;;;;;16.35;55.69;101252.25;5055138;28;45246;-66
2022/07/02 01:28:15;;;;;;;;;10.00;8.00;;;;;16.32;56.42;101255.94;5055454;28;45400;-67
2022/07/02 01:30:40;;;;;;;;;7.75;7.75;;;;;16.30;56.44;101268.44;5053701;28;45474;-66
2022/07/02 01:33:06;;;;;;;;;8.50;8.00;;;;;16.28;57.22;101269.47;5055078;28;46030;-65
2022/07/02 01:35:31;;;;;;;;;7.50;6.00;;;;;16.25;56.86;101269.63;5054812;28;45488;-67
2022/07/02 01:37:57;;;;;;;;;6.75;5.25;;;;;16.20;57.21;101268.06;5054957;28;45835;-67
2022/07/02 01:40:23;;;;;;;;;9.00;8.00;;;;;16.17;56.83;101270.91;5055109;28;45537;-67
2022/07/02 01:42:48;;;;;;;;;7.75;6.25;;;;;16.17;56.75;101277.97;5055056;28;45467;-66
2022/07/02 01:45:13;;;;;;;;;6.50;6.50;;;;;16.17;56.75;101270.03;5055455;28;45354;-67
2022/07/02 01:47:39;;;;;;;;;7.75;7.00;;;;;16.18;56.89;101272.59;5087777;27;45258;-65
2022/07/02 01:50:05;;;;;;;;;7.25;7.25;;;;;16.18;56.89;101274.38;5055413;28;45158;-66
2022/07/02 01:52:31;;;;;;;;;7.00;6.75;;;;;16.16;56.92;101266.53;5053428;28;47109;-68
2022/07/02 01:54:56;;;;;;;;;6.50;6.50;;;;;16.15;57.08;101269.25;5054501;28;45243;-66
2022/07/02 01:57:22;;;;;;;;;7.00;7.00;;;;;16.16;56.88;101268.31;5054710;28;45406;-67
2022/07/02 01:59:48;;;;;;;;;10.00;8.00;;;;;16.17;57.02;101268.25;5054993;28;45448;-67
2022/07/02 02:02:13;;;;;;;;;7.50;7.00;;;;;16.17;57.18;101270.03;5058290;28;45358;-67
2022/07/02 02:04:39;;;;;;;;;4.50;4.50;;;;;16.16;57.02;101271.84;5058101;28;45413;-66
2022/07/02 02:07:04;;;;;;;;;9.75;8.25;;;;;16.13;57.12;101263.16;5058474;28;45322;-67
2022/07/02 02:09:30;;;;;;;;;7.50;7.50;;;;;16.15;57.27;101261.28;5058295;28;45581;-66
2022/07/02 02:11:55;;;;;;;;;9.00;7.75;;;;;16.11;57.28;101257.06;5057724;28;45460;-65
2022/07/02 02:14:21;;;;;;;;;7.00;7.00;;;;;16.16;57.42;101265.66;5057796;28;45429;-66
2022/07/02 02:16:46;;;;;;;;;6.75;6.00;;;;;16.09;57.50;101256.31;5058469;28;45519;-67
2022/07/02 02:19:12;;;;;;;;;5.75;5.75;;;;;16.12;57.42;101256.13;5058246;28;45318;-67
2022/07/02 02:21:37;;;;;;;;;7.00;7.00;;;;;16.13;57.76;101260.50;5057916;28;46147;-67
2022/07/02 02:24:03;;;;;;;;;6.75;6.75;;;;;16.10;57.64;101252.72;5057672;28;45385;-66
2022/07/02 02:26:29;;;;;;;;;9.25;7.75;;;;;16.09;57.15;101251.00;5058144;28;45279;-67
2022/07/02 02:28:54;;;;;;;;;8.00;8.00;;;;;16.03;57.79;101238.94;5091453;27;45516;-65
2022/07/02 02:31:21;;;;;;;;;7.50;7.50;;;;;16.08;57.75;101246.63;5075603;28;47216;-65
2022/07/02 02:33:46;;;;;;;;;9.25;7.75;;;;;16.05;58.30;101248.50;5059391;28;45215;-67
2022/07/02 02:36:11;;;;;;;;;9.50;7.25;;;;;16.02;58.04;101248.66;5058124;28;45244;-67
2022/07/02 02:38:37;;;;;;;;;12.50;8.25;;;;;16.02;57.86;101242.50;5057843;28;45567;-67
2022/07/02 02:41:07;;;;;;;;;7.00;7.00;;;;;16.01;58.44;101246.94;5057321;28;45309;-66
2022/07/02 02:43:33;;;;;;;;;7.25;7.25;;;;;16.01;58.04;101246.09;5057619;28;45359;-67
2022/07/02 02:46:00;;;;;;;;;8.00;6.75;;;;;15.99;58.29;101240.88;5057839;28;45345;-67
2022/07/02 02:48:25;;;;;;;;;9.75;8.25;;;;;15.98;58.38;101246.28;5057739;28;45598;-66
2022/07/02 02:50:51;;;;;;;;;8.50;8.50;;;;;15.95;58.08;101239.31;5057236;28;45246;-67
2022/07/02 02:53:16;;;;;;;;;10.25;10.25;;;;;15.97;58.31;101245.41;5057619;28;45406;-67
2022/07/02 02:55:42;;;;;;;;;9.75;8.25;;;;;15.96;58.20;101235.72;5057507;28;45430;-67
2022/07/02 02:58:07;;;;;;;;;8.00;8.00;;;;;15.98;58.80;101247.09;5057315;28;45354;-66
2022/07/02 03:00:33;;;;;;;;;7.75;7.00;;;;;15.83;58.33;101216.88;5056809;28;45350;-66
2022/07/02 03:02:58;;;;;;;;;12.75;12.75;;;;;15.97;58.39;101236.59;5056958;28;45370;-66
2022/07/02 03:05:24;;;;;;;;;11.75;10.00;;;;;15.93;58.75;101238.53;5057137;28;45354;-67
2022/07/02 03:07:50;;;;;;;;;9.75;9.75;;;;;15.95;58.65;101239.31;5057403;28;45703;-66
2022/07/02 03:10:15;;;;;;;;;8.00;8.00;;;;;15.95;58.67;101236.66;5056804;28;46574;-66
2022/07/02 03:12:40;;;;;;;;;7.00;7.00;;;;;15.80;58.45;101216.22;5056226;28;45290;-66
2022/07/02 03:15:06;;;;;;;;;9.00;9.00;;;;;15.95;58.59;101241.13;5057020;28;45298;-66
2022/07/02 03:17:32;;;;;;;;;9.75;7.75;;;;;15.95;58.65;101241.97;5057276;28;45184;-67
2022/07/02 03:19:57;;;;;;;;;12.25;10.00;;;;;15.90;58.52;101236.03;5056616;28;46484;-67
2022/07/02 03:22:22;;;;;;;;;9.00;9.00;;;;;15.93;58.34;101245.66;5056832;28;45315;-65
2022/07/02 03:24:48;;;;;;;;;15.25;14.25;;;;;15.90;58.48;101239.56;5057460;28;45309;-67
2022/07/02 03:27:13;;;;;;;;;10.50;7.50;;;;;15.93;58.32;101250.97;5056896;28;45628;-66
2022/07/02 03:29:38;;;;;;;;;9.50;9.50;;;;;15.91;58.33;101248.38;5056421;28;45288;-66
2022/07/02 03:32:04;;;;;;;;;8.75;8.75;;;;;15.89;58.44;101248.44;5056402;28;45294;-66
2022/07/02 03:34:30;;;;;;;;;12.25;9.75;;;;;15.89;58.83;101247.59;5056692;28;45329;-67
2022/07/02 03:36:55;;;;;;;;;9.50;7.75;;;;;15.83;58.79;101238.13;5056682;28;45393;-67
2022/07/02 03:39:20;;;;;;;;;11.50;11.00;;;;;15.85;58.86;101238.03;5056577;28;48641;-66
2022/07/02 03:41:46;;;;;;;;;11.50;11.50;;;;;15.89;58.46;101236.97;5056077;28;52391;-67
2022/07/02 03:44:11;;;;;;;;;19.75;15.75;;;;;15.89;58.55;101243.13;5056517;28;45413;-66
2022/07/02 03:46:36;;;;;;;;;14.25;12.00;;;;;15.87;58.56;101244.13;5056751;28;45322;-67
2022/07/02 03:49:02;;;;;;;;;10.50;8.75;;;;;15.88;58.65;101244.06;5054995;28;47034;-67
2022/07/02 03:51:27;;;;;;;;;12.50;11.75;;;;;15.88;58.68;101249.38;5056285;28;45354;-66
2022/07/02 03:53:53;;;;;;;;;13.00;11.25;;;;;15.87;58.45;101250.31;5056635;28;45672;-67
2022/07/02 03:56:18;;;;;;;;;11.50;11.50;;;;;15.83;58.72;101243.41;5056694;28;45502;-67
2022/07/02 03:58:43;;;;;;;;;11.25;10.50;;;;;15.80;58.40;101240.94;5056107;28;45433;-66
2022/07/02 04:01:09;;;;;;;;;11.25;9.25;;;;;15.82;58.12;101244.34;5056173;28;45280;-67
2022/07/02 04:03:34;;;;;;;;;11.00;11.00;;;;;15.83;58.62;101247.88;5056361;28;45391;-66
2022/07/02 04:06:01;;;;;;;;;9.00;8.75;;;;;15.82;58.41;101241.69;5056337;28;45716;-66
2022/07/02 04:08:26;;;;;;;;;9.50;9.50;;;;;15.84;58.37;101239.81;5056021;28;46689;-67
2022/07/02 04:10:51;;;;;;;;;9.50;9.50;;;;;15.82;58.07;101244.34;5056544;28;45443;-67
2022/07/02 04:13:17;;;;;;;;;9.75;9.25;;;;;15.83;58.26;101239.91;5058498;28;45255;-65
2022/07/02 04:15:42;;;;;;;;;10.00;10.00;;;;;15.79;58.51;101236.56;5057847;28;45508;-67
2022/07/02 04:18:08;;;;;;;;;9.75;9.75;;;;;15.80;58.79;101242.72;5056957;28;46393;-66
2022/07/02 04:20:33;;;;;;;;;11.00;9.25;;;;;15.81;58.64;101241.78;5055399;28;45311;-67
2022/07/02 04:23:00;;;;;;;;;11.75;11.00;;;;;15.78;58.91;101241.03;5055185;28;45355;-66
2022/07/02 04:25:25;;;;;;;;;9.00;8.25;;;;;15.78;58.83;101245.44;5056263;28;45291;-66
2022/07/02 04:27:50;;;;;;;;;9.00;9.00;;;;;15.74;59.17;101244.78;5054636;28;46498;-65
2022/07/02 04:30:16;;;;;;;;;10.50;10.00;;;;;15.72;59.44;101249.28;5055728;28;45358;-67
2022/07/02 04:32:41;;;;;;;;;8.50;8.50;;;;;15.73;59.42;101253.66;5055896;28;45746;-66
2022/07/02 04:35:07;;;;;;;;;9.25;9.25;;;;;15.72;59.62;101256.38;5056117;28;45514;-67
2022/07/02 04:37:32;;;;;;;;;11.75;11.75;;;;;15.74;59.84;101259.81;5055577;28;46311;-67
2022/07/02 04:39:58;;;;;;;;;9.00;9.00;;;;;15.72;59.78;101251.06;5055603;28;45487;-67
2022/07/02 04:42:23;;;;;;;;;11.00;11.00;;;;;15.74;59.80;101254.50;5054847;28;45331;-67
2022/07/02 04:44:48;;;;;;;;;9.00;9.00;;;;;15.78;59.74;101256.06;5056117;28;45727;-67
2022/07/02 04:47:14;;;;;;;;;10.75;10.75;;;;;15.81;59.80;101247.94;5055446;28;45497;-68
2022/07/02 04:49:39;;;;;;;;;11.00;9.75;;;;;15.81;60.10;101242.63;5055519;28;45322;-68
2022/07/02 04:52:05;;;;;;;;;12.75;9.75;;;;;15.81;59.89;101239.16;5055599;28;45446;-67
2022/07/02 04:54:31;;;;;;;;;8.00;8.00;;;;;15.77;59.53;101234.00;5055732;28;45354;-67
2022/07/02 04:56:56;;;;;;;;;7.50;7.50;;;;;15.88;59.58;101245.88;5055045;28;46704;-66
2022/07/02 04:59:22;;;;;;;;;8.00;8.00;;;;;15.90;59.62;101242.22;5055754;28;45322;-67
2022/07/02 05:01:47;;;;;;;;;11.50;11.50;;;;;16.11;59.31;101249.13;5055612;28;45608;-66
2022/07/02 05:04:12;;;;;;;;;11.50;10.00;;;;;16.53;58.51;101254.84;5055713;28;45232;-66
2022/07/02 05:06:38;;;;;;;;;9.75;9.00;;;;;17.08;57.53;101257.16;5055283;28;46189;-67
2022/07/02 05:09:04;;;;;;;;;8.75;8.75;;;;;17.69;56.44;101236.81;5053822;28;45344;-67
2022/07/02 05:11:30;;;;;;;;;11.25;9.75;;;;;18.40;54.85;101248.53;5087778;27;45279;-66
2022/07/02 05:13:56;;;;;;;;;7.25;7.25;;;;;18.92;54.00;101243.47;5055584;28;45631;-67
2022/07/02 05:16:22;;;;;;;;;8.00;7.00;;;;;19.35;52.66;101242.47;5054993;28;47800;-66
2022/07/02 05:18:47;;;;;;;;;7.75;7.75;;;;;19.78;52.26;101247.59;5055315;28;45834;-66
2022/07/02 05:21:13;;;;;;;;;10.75;9.75;;;;;20.19;51.32;101250.19;5055364;28;45452;-67
2022/07/02 05:23:38;;;;;;;;;9.50;8.00;;;;;20.63;50.47;101247.97;5055925;28;45396;-67
2022/07/02 05:26:04;;;;;;;;;7.00;7.00;;;;;20.96;49.03;101250.03;5055353;28;45449;-66
2022/07/02 05:28:29;;;;;;;;;10.25;7.25;;;;;21.16;48.34;101256.56;5070333;28;45399;-67
2022/07/02 05:30:55;;;;;;;;;8.50;8.50;;;;;21.19;47.96;101249.28;5055627;28;45315;-67
2022/07/02 05:33:21;;;;;;;;;6.75;6.75;;;;;21.23;47.73;101250.78;5055177;28;45283;-67
2022/07/02 05:35:46;;;;;;;;;11.00;9.25;;;;;21.23;47.64;101253.47;5056098;28;46209;-68
2022/07/02 05:38:12;;;;;;;;;7.25;6.25;;;;;21.23;47.19;101250.78;5058628;28;45330;-67
2022/07/02 05:40:37;;;;;;;;;8.75;7.25;;;;;21.24;47.29;101247.97;5058718;28;45331;-67
2022/07/02 05:43:03;;;;;;;;;6.00;6.00;;;;;21.25;47.16;101246.19;5058546;28;46289;-68
2022/07/02 05:45:28;;;;;;;;;8.75;6.50;;;;;21.25;47.35;101248.84;5058835;28;46541;-68
2022/07/02 05:47:54;;;;;;;;;6.50;6.50;;;;;21.19;47.23;101251.97;5058527;28;45379;-66
2022/07/02 05:50:19;;;;;;;;;9.00;9.00;;;;;21.17;47.13;101250.25;5058123;28;45219;-67
2022/07/02 05:52:45;;;;;;;;;6.00;4.25;;;;;21.13;46.81;101255.97;5067321;28;45437;-69
2022/07/02 05:55:10;;;;;;;;;9.50;9.50;;;;;21.02;47.39;101249.59;5078536;27;45501;-68
2022/07/02 05:57:37;;;;;;;;;8.25;5.50;;;;;20.92;47.00;101259.25;5082164;27;45239;-67
2022/07/02 06:00:04;;;;;;;;;8.25;7.00;;;;;20.75;47.12;101251.59;5081720;27;45445;-70
2022/07/02 06:02:30;;;;;;;;;7.75;6.50;;;;;20.57;47.56;101252.81;5083510;27;45590;-67
2022/07/02 06:04:55;;;;;;;;;8.50;6.75;;;;;20.40;48.03;101239.81;5091713;27;45500;-69
2022/07/02 06:07:38;;;;;;;;;8.00;7.00;;;;;20.36;47.98;101257.84;5094538;27;45429;-68
2022/07/02 06:10:05;;;;;;;;;8.75;7.50;;;;;20.18;48.28;101249.34;5077303;28;45426;-68
2022/07/02 06:12:31;;;;;;;;;10.75;10.75;;;;;19.98;48.56;101256.06;5111990;27;45432;-69
2022/07/02 06:14:56;;;;;;;;;8.25;8.00;;;;;19.87;48.34;101262.09;5097295;27;45355;-71
2022/07/02 06:17:22;;;;;;;;;8.75;8.75;;;;;19.70;49.23;101260.63;5087239;27;45366;-68
2022/07/02 06:19:48;;;;;;;;;8.50;8.50;;;;;19.55;48.83;101265.16;5077326;27;45354;-70
2022/07/02 06:22:14;;;;;;;;;11.75;9.50;;;;;19.40;49.30;101264.38;5078474;27;45313;-67
2022/07/02 06:24:39;;;;;;;;;9.75;9.75;;;;;19.22;49.68;101255.78;5077497;27;45445;-68
2022/07/02 06:27:05;;;;;;;;;7.00;7.00;;;;;19.12;49.90;101258.19;5077503;27;45411;-69
2022/07/02 06:29:31;;;;;;;;;9.25;9.25;;;;;18.99;50.06;101255.47;5076700;28;45434;-67
2022/07/02 06:31:56;;;;;;;;;9.75;9.75;;;;;18.87;49.96;101253.56;5078302;28;45502;-64
2022/07/02 06:34:22;;;;;;;;;8.25;8.25;;;;;18.78;50.21;101260.38;5076969;27;46257;-65
2022/07/02 06:36:47;;;;;;;;;9.00;7.50;;;;;18.66;50.79;101256.66;5076892;27;45441;-63
2022/07/02 06:39:12;;;;;;;;;8.75;8.75;;;;;18.58;50.65;101250.97;5077812;27;45267;-63
2022/07/02 06:44:21;;;;;;;;;10.00;10.00;;;;;18.47;51.42;101255.16;5076935;28;45273;-63
2022/07/02 06:46:47;;;;;;;;;9.50;8.00;;;;;18.49;51.44;101252.41;5075252;28;45827;-64
2022/07/02 06:49:12;;;;;;;;;9.75;9.75;;;;;18.47;51.84;101255.16;5077256;27;45351;-65
2022/07/02 06:51:38;;;;;;;;;9.50;8.25;;;;;18.46;51.47;101244.59;5077405;27;45640;-63
2022/07/02 06:54:03;;;;;;;;;7.00;7.00;;;;;18.48;51.65;101248.88;5077166;28;45412;-65
2022/07/02 06:56:34;;;;;;;;;8.00;6.75;;;;;18.51;51.34;101250.50;5076916;27;45318;-64
2022/07/02 06:59:00;;;;;;;;;8.00;7.00;;;;;18.53;51.75;101253.91;5077499;27;45199;-65
2022/07/02 07:01:25;;;;;;;;;9.75;8.25;;;;;18.59;51.45;101255.34;5077314;28;45616;-65
2022/07/02 07:03:50;;;;;;;;;8.00;8.00;;;;;18.63;51.86;101255.06;5076047;27;45471;-64
2022/07/02 07:06:16;;;;;;;;;9.00;7.50;;;;;18.72;51.83;101258.09;5076792;27;45320;-64
2022/07/02 07:08:41;;;;;;;;;6.75;6.75;;;;;18.79;51.05;101264.75;5076811;27;45604;-62
2022/07/02 07:11:06;;;;;;;;;10.50;7.25;;;;;18.85;51.16;101253.69;5076926;27;45484;-62
2022/07/02 07:13:32;;;;;;;;;4.50;4.50;;;;;18.92;50.02;101248.78;5076803;27;45746;-67
2022/07/02 07:15:57;;;;;;;;;6.25;6.25;;;;;18.95;50.45;101253.94;5077019;27;45406;-67
2022/07/02 07:18:23;;;;;;;;;6.00;4.00;;;;;19.02;50.03;101252.59;5077322;27;45488;-74
2022/07/02 07:20:49;;;;;;;;;8.25;6.75;;;;;19.08;49.74;101244.19;5078147;27;45457;-76
2022/07/02 07:23:15;;;;;;;;;4.50;4.50;;;;;19.17;49.39;101245.41;5080050;27;45445;-73
2022/07/02 07:25:40;;;;;;;;;4.25;4.25;;;;;19.20;49.21;101236.38;5094502;27;49182;-79
